Terminal Aerodrome Forecast
Issued by NWS

Home | Current Version | Previous Version | Graphics & Text | Print | Product List | Glossary On
Versions: 1 2 3 4 5 6 7 8 9 10 11 12
000
FTUS43 KICT 241720
TAFRSL
TAF
KRSL 241720Z 2418/2518 34020G28KT P6SM VCSH OVC015
     FM242000 35021G29KT P6SM OVC035
     FM250200 34015KT P6SM BKN150
     FM250700 33008KT P6SM BKN250
     FM251400 28006KT P6SM FEW200=

USA.gov is the U.S. government's official web portal to all federal, state and local government web resources and services.